sensor_id;sensor_type;location;lat;lon;timestamp;P1;durP1;ratioP1;P2;durP2;ratioP2
7845;SDS011;3968;51.424;6.788;2022-08-19T00:01:53;6.15;;;5.55;;
7845;SDS011;3968;51.424;6.788;2022-08-19T00:04:21;9.43;;;6.45;;
7845;SDS011;3968;51.424;6.788;2022-08-19T00:07:06;8.23;;;5.90;;
7845;SDS011;3968;51.424;6.788;2022-08-19T00:09:32;8.57;;;5.97;;
7845;SDS011;3968;51.424;6.788;2022-08-19T00:11:58;7.72;;;5.95;;
7845;SDS011;3968;51.424;6.788;2022-08-19T00:14:25;7.18;;;6.43;;
7845;SDS011;3968;51.424;6.788;2022-08-19T00:16:52;8.02;;;6.43;;
7845;SDS011;3968;51.424;6.788;2022-08-19T00:19:19;9.35;;;6.22;;
7845;SDS011;3968;51.424;6.788;2022-08-19T00:21:45;8.63;;;6.57;;
7845;SDS011;3968;51.424;6.788;2022-08-19T00:24:12;6.53;;;5.68;;
7845;SDS011;3968;51.424;6.788;2022-08-19T00:26:40;9.05;;;5.65;;
7845;SDS011;3968;51.424;6.788;2022-08-19T00:29:08;6.70;;;5.97;;
7845;SDS011;3968;51.424;6.788;2022-08-19T00:31:35;6.78;;;5.85;;
7845;SDS011;3968;51.424;6.788;2022-08-19T00:34:01;11.75;;;6.43;;
7845;SDS011;3968;51.424;6.788;2022-08-19T00:36:27;6.88;;;5.78;;
7845;SDS011;3968;51.424;6.788;2022-08-19T00:38:54;19.17;;;6.38;;
7845;SDS011;3968;51.424;6.788;2022-08-19T00:41:20;8.82;;;6.05;;
7845;SDS011;3968;51.424;6.788;2022-08-19T00:46:28;9.05;;;6.30;;
7845;SDS011;3968;51.424;6.788;2022-08-19T00:48:55;9.63;;;6.38;;
7845;SDS011;3968;51.424;6.788;2022-08-19T00:51:22;6.70;;;6.07;;
7845;SDS011;3968;51.424;6.788;2022-08-19T00:53:49;8.18;;;5.65;;
7845;SDS011;3968;51.424;6.788;2022-08-19T00:56:15;8.48;;;6.43;;
7845;SDS011;3968;51.424;6.788;2022-08-19T00:58:41;7.85;;;6.07;;
7845;SDS011;3968;51.424;6.788;2022-08-19T01:01:07;6.30;;;5.70;;
7845;SDS011;3968;51.424;6.788;2022-08-19T01:03:32;8.90;;;5.97;;
7845;SDS011;3968;51.424;6.788;2022-08-19T01:05:58;6.70;;;6.00;;
7845;SDS011;3968;51.424;6.788;2022-08-19T01:08:25;6.70;;;6.00;;
7845;SDS011;3968;51.424;6.788;2022-08-19T01:10:55;9.15;;;7.43;;
7845;SDS011;3968;51.424;6.788;2022-08-19T01:13:23;8.48;;;7.05;;
7845;SDS011;3968;51.424;6.788;2022-08-19T01:15:56;8.50;;;6.88;;
7845;SDS011;3968;51.424;6.788;2022-08-19T01:18:27;9.13;;;6.80;;
7845;SDS011;3968;51.424;6.788;2022-08-19T01:20:56;8.63;;;7.22;;
7845;SDS011;3968;51.424;6.788;2022-08-19T01:23:27;7.65;;;6.63;;
7845;SDS011;3968;51.424;6.788;2022-08-19T01:26:09;7.80;;;6.90;;
7845;SDS011;3968;51.424;6.788;2022-08-19T01:28:38;8.25;;;6.97;;
7845;SDS011;3968;51.424;6.788;2022-08-19T01:31:06;7.35;;;6.57;;
7845;SDS011;3968;51.424;6.788;2022-08-19T01:33:33;8.02;;;6.30;;
7845;SDS011;3968;51.424;6.788;2022-08-19T01:36:09;8.57;;;7.60;;
7845;SDS011;3968;51.424;6.788;2022-08-19T01:38:38;8.35;;;7.43;;
7845;SDS011;3968;51.424;6.788;2022-08-19T01:41:07;8.82;;;6.95;;
7845;SDS011;3968;51.424;6.788;2022-08-19T01:43:33;8.52;;;6.50;;
7845;SDS011;3968;51.424;6.788;2022-08-19T01:45:59;9.38;;;7.25;;
7845;SDS011;3968;51.424;6.788;2022-08-19T01:48:25;8.00;;;7.20;;
7845;SDS011;3968;51.424;6.788;2022-08-19T01:50:51;7.47;;;6.78;;
7845;SDS011;3968;51.424;6.788;2022-08-19T01:53:17;7.90;;;6.97;;
7845;SDS011;3968;51.424;6.788;2022-08-19T01:55:43;8.30;;;7.07;;
7845;SDS011;3968;51.424;6.788;2022-08-19T01:58:13;8.40;;;7.60;;
7845;SDS011;3968;51.424;6.788;2022-08-19T02:00:43;8.60;;;7.32;;
7845;SDS011;3968;51.424;6.788;2022-08-19T02:03:10;8.25;;;7.15;;
7845;SDS011;3968;51.424;6.788;2022-08-19T02:05:36;7.18;;;6.47;;
7845;SDS011;3968;51.424;6.788;2022-08-19T02:08:03;10.73;;;7.18;;
7845;SDS011;3968;51.424;6.788;2022-08-19T02:10:29;7.70;;;6.90;;
7845;SDS011;3968;51.424;6.788;2022-08-19T02:12:55;7.97;;;7.15;;
7845;SDS011;3968;51.424;6.788;2022-08-19T02:15:21;10.23;;;7.82;;
7845;SDS011;3968;51.424;6.788;2022-08-19T02:17:47;8.45;;;7.70;;
7845;SDS011;3968;51.424;6.788;2022-08-19T02:20:13;11.45;;;8.27;;
7845;SDS011;3968;51.424;6.788;2022-08-19T02:22:39;8.90;;;7.93;;
7845;SDS011;3968;51.424;6.788;2022-08-19T02:25:09;8.38;;;7.57;;
7845;SDS011;3968;51.424;6.788;2022-08-19T02:27:36;8.20;;;7.32;;
7845;SDS011;3968;51.424;6.788;2022-08-19T02:30:04;10.17;;;7.43;;
7845;SDS011;3968;51.424;6.788;2022-08-19T02:32:31;9.98;;;7.32;;
7845;SDS011;3968;51.424;6.788;2022-08-19T02:34:58;10.00;;;7.18;;
7845;SDS011;3968;51.424;6.788;2022-08-19T02:37:23;10.95;;;7.65;;
7845;SDS011;3968;51.424;6.788;2022-08-19T02:40:08;10.40;;;7.97;;
7845;SDS011;3968;51.424;6.788;2022-08-19T02:42:34;9.30;;;7.40;;
7845;SDS011;3968;51.424;6.788;2022-08-19T02:44:59;12.10;;;7.97;;
7845;SDS011;3968;51.424;6.788;2022-08-19T02:47:25;16.50;;;7.65;;
7845;SDS011;3968;51.424;6.788;2022-08-19T02:49:51;10.68;;;7.75;;
7845;SDS011;3968;51.424;6.788;2022-08-19T02:52:16;19.88;;;9.88;;
7845;SDS011;3968;51.424;6.788;2022-08-19T02:54:42;22.35;;;9.10;;
7845;SDS011;3968;51.424;6.788;2022-08-19T02:57:08;16.70;;;8.70;;
7845;SDS011;3968;51.424;6.788;2022-08-19T02:59:34;54.90;;;10.80;;
7845;SDS011;3968;51.424;6.788;2022-08-19T03:02:00;11.35;;;8.25;;
7845;SDS011;3968;51.424;6.788;2022-08-19T03:04:26;23.35;;;8.50;;
7845;SDS011;3968;51.424;6.788;2022-08-19T03:06:51;20.10;;;8.73;;
7845;SDS011;3968;51.424;6.788;2022-08-19T03:09:19;9.50;;;7.88;;
7845;SDS011;3968;51.424;6.788;2022-08-19T03:11:45;8.77;;;7.93;;
7845;SDS011;3968;51.424;6.788;2022-08-19T03:14:11;11.85;;;7.57;;
7845;SDS011;3968;51.424;6.788;2022-08-19T03:16:42;21.87;;;8.10;;
7845;SDS011;3968;51.424;6.788;2022-08-19T03:19:13;16.45;;;7.93;;
7845;SDS011;3968;51.424;6.788;2022-08-19T03:21:42;10.82;;;8.15;;
7845;SDS011;3968;51.424;6.788;2022-08-19T03:24:09;17.77;;;8.98;;
7845;SDS011;3968;51.424;6.788;2022-08-19T03:26:40;9.02;;;8.13;;
7845;SDS011;3968;51.424;6.788;2022-08-19T03:29:14;14.27;;;8.40;;
7845;SDS011;3968;51.424;6.788;2022-08-19T03:31:41;10.35;;;8.38;;
7845;SDS011;3968;51.424;6.788;2022-08-19T03:34:08;9.38;;;8.35;;
7845;SDS011;3968;51.424;6.788;2022-08-19T03:36:38;12.85;;;8.00;;
7845;SDS011;3968;51.424;6.788;2022-08-19T03:39:04;14.82;;;8.07;;
7845;SDS011;3968;51.424;6.788;2022-08-19T03:41:31;35.03;;;11.60;;
7845;SDS011;3968;51.424;6.788;2022-08-19T03:44:02;13.67;;;8.80;;
7845;SDS011;3968;51.424;6.788;2022-08-19T03:46:30;38.85;;;9.52;;
7845;SDS011;3968;51.424;6.788;2022-08-19T03:48:58;10.67;;;9.10;;
7845;SDS011;3968;51.424;6.788;2022-08-19T03:53:56;14.13;;;9.90;;
7845;SDS011;3968;51.424;6.788;2022-08-19T03:56:23;19.40;;;10.57;;
7845;SDS011;3968;51.424;6.788;2022-08-19T03:58:50;12.43;;;10.73;;
7845;SDS011;3968;51.424;6.788;2022-08-19T04:01:18;12.40;;;9.68;;
7845;SDS011;3968;51.424;6.788;2022-08-19T04:03:46;17.80;;;11.17;;
7845;SDS011;3968;51.424;6.788;2022-08-19T04:06:13;14.10;;;11.63;;
7845;SDS011;3968;51.424;6.788;2022-08-19T04:08:43;34.80;;;12.35;;
7845;SDS011;3968;51.424;6.788;2022-08-19T04:11:11;17.80;;;12.15;;
7845;SDS011;3968;51.424;6.788;2022-08-19T04:13:39;15.57;;;12.90;;
7845;SDS011;3968;51.424;6.788;2022-08-19T04:16:05;15.70;;;12.30;;
7845;SDS011;3968;51.424;6.788;2022-08-19T04:18:32;17.27;;;11.60;;
7845;SDS011;3968;51.424;6.788;2022-08-19T04:20:58;14.57;;;11.37;;
7845;SDS011;3968;51.424;6.788;2022-08-19T04:23:25;17.13;;;12.70;;
7845;SDS011;3968;51.424;6.788;2022-08-19T04:25:52;12.70;;;11.03;;
7845;SDS011;3968;51.424;6.788;2022-08-19T04:28:17;14.52;;;12.10;;
7845;SDS011;3968;51.424;6.788;2022-08-19T04:30:44;15.07;;;12.07;;
7845;SDS011;3968;51.424;6.788;2022-08-19T04:33:14;15.32;;;11.90;;
7845;SDS011;3968;51.424;6.788;2022-08-19T04:35:43;15.83;;;12.13;;
7845;SDS011;3968;51.424;6.788;2022-08-19T04:38:12;18.13;;;12.43;;
7845;SDS011;3968;51.424;6.788;2022-08-19T04:40:42;14.60;;;11.97;;
7845;SDS011;3968;51.424;6.788;2022-08-19T04:43:29;13.83;;;11.90;;
7845;SDS011;3968;51.424;6.788;2022-08-19T04:45:55;26.93;;;12.90;;
7845;SDS011;3968;51.424;6.788;2022-08-19T04:48:21;15.67;;;12.00;;
7845;SDS011;3968;51.424;6.788;2022-08-19T04:50:57;15.23;;;11.90;;
7845;SDS011;3968;51.424;6.788;2022-08-19T04:53:24;14.97;;;13.50;;
7845;SDS011;3968;51.424;6.788;2022-08-19T04:55:51;16.57;;;14.87;;
7845;SDS011;3968;51.424;6.788;2022-08-19T04:58:17;17.13;;;13.87;;
7845;SDS011;3968;51.424;6.788;2022-08-19T05:00:43;16.37;;;14.43;;
7845;SDS011;3968;51.424;6.788;2022-08-19T05:03:09;17.17;;;13.43;;
7845;SDS011;3968;51.424;6.788;2022-08-19T05:05:40;16.33;;;13.80;;
7845;SDS011;3968;51.424;6.788;2022-08-19T05:08:06;16.93;;;13.70;;
7845;SDS011;3968;51.424;6.788;2022-08-19T05:10:34;17.90;;;15.77;;
7845;SDS011;3968;51.424;6.788;2022-08-19T05:13:03;16.40;;;14.77;;
7845;SDS011;3968;51.424;6.788;2022-08-19T05:15:29;17.00;;;14.77;;
7845;SDS011;3968;51.424;6.788;2022-08-19T05:17:56;19.97;;;15.60;;
7845;SDS011;3968;51.424;6.788;2022-08-19T05:20:40;20.43;;;16.83;;
7845;SDS011;3968;51.424;6.788;2022-08-19T05:23:24;20.25;;;15.80;;
7845;SDS011;3968;51.424;6.788;2022-08-19T05:25:50;24.87;;;17.40;;
7845;SDS011;3968;51.424;6.788;2022-08-19T05:28:16;21.03;;;16.83;;
7845;SDS011;3968;51.424;6.788;2022-08-19T05:30:43;18.87;;;16.40;;
7845;SDS011;3968;51.424;6.788;2022-08-19T05:33:10;23.90;;;17.03;;
7845;SDS011;3968;51.424;6.788;2022-08-19T05:35:36;20.58;;;16.95;;
7845;SDS011;3968;51.424;6.788;2022-08-19T05:38:03;21.30;;;17.03;;
7845;SDS011;3968;51.424;6.788;2022-08-19T05:40:29;23.27;;;17.43;;
7845;SDS011;3968;51.424;6.788;2022-08-19T05:42:55;30.58;;;16.27;;
7845;SDS011;3968;51.424;6.788;2022-08-19T05:45:20;27.42;;;17.40;;
7845;SDS011;3968;51.424;6.788;2022-08-19T05:47:47;31.08;;;19.67;;
7845;SDS011;3968;51.424;6.788;2022-08-19T05:50:13;34.73;;;22.07;;
7845;SDS011;3968;51.424;6.788;2022-08-19T05:52:39;49.20;;;23.13;;
7845;SDS011;3968;51.424;6.788;2022-08-19T05:55:04;34.40;;;23.13;;
7845;SDS011;3968;51.424;6.788;2022-08-19T05:57:31;33.30;;;24.40;;
7845;SDS011;3968;51.424;6.788;2022-08-19T05:59:57;34.67;;;23.98;;
7845;SDS011;3968;51.424;6.788;2022-08-19T06:02:25;35.70;;;26.08;;
7845;SDS011;3968;51.424;6.788;2022-08-19T06:04:52;36.33;;;26.30;;
7845;SDS011;3968;51.424;6.788;2022-08-19T06:07:17;42.63;;;28.08;;
7845;SDS011;3968;51.424;6.788;2022-08-19T06:09:44;41.58;;;29.15;;
7845;SDS011;3968;51.424;6.788;2022-08-19T06:12:09;37.63;;;30.10;;
7845;SDS011;3968;51.424;6.788;2022-08-19T06:14:35;39.60;;;30.23;;
7845;SDS011;3968;51.424;6.788;2022-08-19T06:17:02;39.20;;;31.15;;
7845;SDS011;3968;51.424;6.788;2022-08-19T06:19:29;43.17;;;32.53;;
7845;SDS011;3968;51.424;6.788;2022-08-19T06:21:55;45.47;;;33.77;;
7845;SDS011;3968;51.424;6.788;2022-08-19T06:24:24;47.05;;;35.00;;
7845;SDS011;3968;51.424;6.788;2022-08-19T06:26:51;43.30;;;33.03;;
7845;SDS011;3968;51.424;6.788;2022-08-19T06:29:19;72.13;;;34.00;;
7845;SDS011;3968;51.424;6.788;2022-08-19T06:31:47;48.75;;;33.83;;
7845;SDS011;3968;51.424;6.788;2022-08-19T06:34:14;41.88;;;33.38;;
7845;SDS011;3968;51.424;6.788;2022-08-19T06:36:42;38.60;;;32.83;;
7845;SDS011;3968;51.424;6.788;2022-08-19T06:39:11;49.40;;;34.47;;
7845;SDS011;3968;51.424;6.788;2022-08-19T06:41:41;42.65;;;34.47;;
7845;SDS011;3968;51.424;6.788;2022-08-19T06:44:12;49.28;;;34.78;;
7845;SDS011;3968;51.424;6.788;2022-08-19T06:46:38;44.22;;;34.28;;
7845;SDS011;3968;51.424;6.788;2022-08-19T06:49:05;56.03;;;40.60;;
7845;SDS011;3968;51.424;6.788;2022-08-19T06:51:34;50.17;;;36.92;;
7845;SDS011;3968;51.424;6.788;2022-08-19T06:53:59;53.35;;;43.53;;
7845;SDS011;3968;51.424;6.788;2022-08-19T06:56:27;50.53;;;43.38;;
7845;SDS011;3968;51.424;6.788;2022-08-19T06:59:02;55.10;;;44.53;;
7845;SDS011;3968;51.424;6.788;2022-08-19T07:01:37;58.38;;;46.03;;
7845;SDS011;3968;51.424;6.788;2022-08-19T07:04:06;52.75;;;42.95;;
7845;SDS011;3968;51.424;6.788;2022-08-19T07:06:33;58.17;;;44.80;;
7845;SDS011;3968;51.424;6.788;2022-08-19T07:08:59;59.53;;;47.90;;
7845;SDS011;3968;51.424;6.788;2022-08-19T07:11:25;68.68;;;47.50;;
7845;SDS011;3968;51.424;6.788;2022-08-19T07:13:51;52.53;;;44.70;;
7845;SDS011;3968;51.424;6.788;2022-08-19T07:16:18;54.38;;;43.97;;
7845;SDS011;3968;51.424;6.788;2022-08-19T07:18:45;60.67;;;43.42;;
7845;SDS011;3968;51.424;6.788;2022-08-19T07:21:15;52.38;;;44.25;;
7845;SDS011;3968;51.424;6.788;2022-08-19T07:23:49;55.20;;;41.75;;
7845;SDS011;3968;51.424;6.788;2022-08-19T07:26:21;62.05;;;43.80;;
7845;SDS011;3968;51.424;6.788;2022-08-19T07:28:49;55.92;;;43.92;;
7845;SDS011;3968;51.424;6.788;2022-08-19T07:31:16;46.67;;;39.55;;
7845;SDS011;3968;51.424;6.788;2022-08-19T07:33:44;47.38;;;39.00;;
7845;SDS011;3968;51.424;6.788;2022-08-19T07:36:12;49.90;;;38.95;;
7845;SDS011;3968;51.424;6.788;2022-08-19T07:38:43;46.05;;;37.72;;
7845;SDS011;3968;51.424;6.788;2022-08-19T07:41:14;42.13;;;37.38;;
7845;SDS011;3968;51.424;6.788;2022-08-19T07:43:41;40.47;;;32.95;;
7845;SDS011;3968;51.424;6.788;2022-08-19T07:46:08;38.30;;;32.00;;
7845;SDS011;3968;51.424;6.788;2022-08-19T07:48:35;42.30;;;32.90;;
7845;SDS011;3968;51.424;6.788;2022-08-19T07:51:03;35.20;;;29.65;;
7845;SDS011;3968;51.424;6.788;2022-08-19T07:53:32;35.72;;;30.95;;
7845;SDS011;3968;51.424;6.788;2022-08-19T07:55:58;37.88;;;31.60;;
7845;SDS011;3968;51.424;6.788;2022-08-19T07:58:26;35.08;;;29.58;;
7845;SDS011;3968;51.424;6.788;2022-08-19T08:00:52;34.05;;;28.52;;
7845;SDS011;3968;51.424;6.788;2022-08-19T08:03:20;32.85;;;27.85;;
7845;SDS011;3968;51.424;6.788;2022-08-19T08:06:07;35.20;;;28.20;;
7845;SDS011;3968;51.424;6.788;2022-08-19T08:08:51;35.15;;;27.48;;
7845;SDS011;3968;51.424;6.788;2022-08-19T08:11:35;32.25;;;25.60;;
7845;SDS011;3968;51.424;6.788;2022-08-19T08:14:01;34.55;;;27.33;;
7845;SDS011;3968;51.424;6.788;2022-08-19T08:16:27;35.08;;;26.90;;
7845;SDS011;3968;51.424;6.788;2022-08-19T08:18:56;32.17;;;26.27;;
7845;SDS011;3968;51.424;6.788;2022-08-19T08:21:22;31.48;;;25.95;;
7845;SDS011;3968;51.424;6.788;2022-08-19T08:23:48;28.70;;;25.48;;
7845;SDS011;3968;51.424;6.788;2022-08-19T08:26:13;36.90;;;25.70;;
7845;SDS011;3968;51.424;6.788;2022-08-19T08:28:40;29.70;;;24.88;;
7845;SDS011;3968;51.424;6.788;2022-08-19T08:31:06;30.65;;;23.77;;
7845;SDS011;3968;51.424;6.788;2022-08-19T08:33:31;43.85;;;23.02;;
7845;SDS011;3968;51.424;6.788;2022-08-19T08:35:57;655.15;;;91.25;;
7845;SDS011;3968;51.424;6.788;2022-08-19T08:38:23;33.20;;;19.92;;
7845;SDS011;3968;51.424;6.788;2022-08-19T08:40:50;26.88;;;20.02;;
7845;SDS011;3968;51.424;6.788;2022-08-19T08:46:10;28.70;;;19.58;;
7845;SDS011;3968;51.424;6.788;2022-08-19T08:48:51;21.33;;;17.63;;
7845;SDS011;3968;51.424;6.788;2022-08-19T08:51:24;27.23;;;18.63;;
7845;SDS011;3968;51.424;6.788;2022-08-19T08:54:00;23.83;;;19.80;;
7845;SDS011;3968;51.424;6.788;2022-08-19T08:56:32;52.33;;;21.58;;
7845;SDS011;3968;51.424;6.788;2022-08-19T08:59:03;25.75;;;19.33;;
7845;SDS011;3968;51.424;6.788;2022-08-19T09:01:33;162.20;;;30.25;;
7845;SDS011;3968;51.424;6.788;2022-08-19T09:03:59;17.60;;;14.80;;
7845;SDS011;3968;51.424;6.788;2022-08-19T09:06:29;18.75;;;16.60;;
7845;SDS011;3968;51.424;6.788;2022-08-19T09:09:04;25.05;;;16.67;;
7845;SDS011;3968;51.424;6.788;2022-08-19T09:14:57;27.13;;;21.35;;
7845;SDS011;3968;51.424;6.788;2022-08-19T09:17:35;28.85;;;20.50;;
7845;SDS011;3968;51.424;6.788;2022-08-19T09:22:38;23.58;;;19.92;;
7845;SDS011;3968;51.424;6.788;2022-08-19T09:25:06;28.15;;;22.70;;
7845;SDS011;3968;51.424;6.788;2022-08-19T09:27:35;45.45;;;24.80;;
7845;SDS011;3968;51.424;6.788;2022-08-19T09:30:03;29.48;;;24.17;;
7845;SDS011;3968;51.424;6.788;2022-08-19T09:32:30;30.75;;;22.58;;
7845;SDS011;3968;51.424;6.788;2022-08-19T09:34:55;28.35;;;20.92;;
7845;SDS011;3968;51.424;6.788;2022-08-19T09:37:23;26.85;;;22.58;;
7845;SDS011;3968;51.424;6.788;2022-08-19T09:39:49;32.47;;;24.58;;
7845;SDS011;3968;51.424;6.788;2022-08-19T09:42:16;25.77;;;22.90;;
7845;SDS011;3968;51.424;6.788;2022-08-19T09:44:42;25.83;;;21.20;;
7845;SDS011;3968;51.424;6.788;2022-08-19T09:47:08;25.70;;;19.90;;
7845;SDS011;3968;51.424;6.788;2022-08-19T09:49:36;28.52;;;22.88;;
7845;SDS011;3968;51.424;6.788;2022-08-19T09:52:02;27.23;;;22.73;;
7845;SDS011;3968;51.424;6.788;2022-08-19T09:54:28;24.08;;;21.40;;
7845;SDS011;3968;51.424;6.788;2022-08-19T09:56:54;23.45;;;20.70;;
7845;SDS011;3968;51.424;6.788;2022-08-19T09:59:22;26.40;;;21.15;;
7845;SDS011;3968;51.424;6.788;2022-08-19T10:01:48;28.70;;;24.27;;
7845;SDS011;3968;51.424;6.788;2022-08-19T10:04:14;24.85;;;22.13;;
7845;SDS011;3968;51.424;6.788;2022-08-19T10:06:40;27.20;;;21.48;;
7845;SDS011;3968;51.424;6.788;2022-08-19T10:09:08;34.28;;;25.38;;
7845;SDS011;3968;51.424;6.788;2022-08-19T10:11:36;29.05;;;22.58;;
7845;SDS011;3968;51.424;6.788;2022-08-19T10:14:05;25.08;;;21.35;;
7845;SDS011;3968;51.424;6.788;2022-08-19T10:16:31;27.90;;;23.23;;
7845;SDS011;3968;51.424;6.788;2022-08-19T10:18:58;27.33;;;22.55;;
7845;SDS011;3968;51.424;6.788;2022-08-19T10:21:25;23.27;;;20.67;;
7845;SDS011;3968;51.424;6.788;2022-08-19T10:23:54;21.48;;;19.25;;
7845;SDS011;3968;51.424;6.788;2022-08-19T10:26:24;24.45;;;20.58;;
7845;SDS011;3968;51.424;6.788;2022-08-19T10:28:51;22.02;;;19.67;;
7845;SDS011;3968;51.424;6.788;2022-08-19T10:31:19;20.63;;;18.00;;
7845;SDS011;3968;51.424;6.788;2022-08-19T10:33:47;21.40;;;18.27;;
7845;SDS011;3968;51.424;6.788;2022-08-19T10:36:17;20.40;;;17.38;;
7845;SDS011;3968;51.424;6.788;2022-08-19T10:38:49;23.25;;;20.35;;
7845;SDS011;3968;51.424;6.788;2022-08-19T10:41:20;22.27;;;19.85;;
7845;SDS011;3968;51.424;6.788;2022-08-19T10:43:52;22.60;;;20.17;;
7845;SDS011;3968;51.424;6.788;2022-08-19T10:46:20;20.30;;;18.27;;
7845;SDS011;3968;51.424;6.788;2022-08-19T10:48:48;24.05;;;17.33;;
7845;SDS011;3968;51.424;6.788;2022-08-19T10:51:14;22.10;;;16.48;;
7845;SDS011;3968;51.424;6.788;2022-08-19T10:53:59;21.10;;;16.35;;
7845;SDS011;3968;51.424;6.788;2022-08-19T10:56:26;19.58;;;15.23;;
7845;SDS011;3968;51.424;6.788;2022-08-19T10:59:10;18.05;;;14.00;;
7845;SDS011;3968;51.424;6.788;2022-08-19T11:01:39;17.15;;;14.80;;
7845;SDS011;3968;51.424;6.788;2022-08-19T11:04:07;14.57;;;13.07;;
7845;SDS011;3968;51.424;6.788;2022-08-19T11:06:36;19.17;;;13.82;;
7845;SDS011;3968;51.424;6.788;2022-08-19T11:09:03;17.30;;;12.40;;
7845;SDS011;3968;51.424;6.788;2022-08-19T11:11:30;16.85;;;13.57;;
7845;SDS011;3968;51.424;6.788;2022-08-19T11:13:57;13.38;;;9.77;;
7845;SDS011;3968;51.424;6.788;2022-08-19T11:16:24;16.25;;;11.32;;
7845;SDS011;3968;51.424;6.788;2022-08-19T11:18:55;16.45;;;10.93;;
7845;SDS011;3968;51.424;6.788;2022-08-19T11:21:30;13.15;;;11.70;;
7845;SDS011;3968;51.424;6.788;2022-08-19T11:23:58;14.13;;;11.77;;
7845;SDS011;3968;51.424;6.788;2022-08-19T11:26:26;12.45;;;11.25;;
7845;SDS011;3968;51.424;6.788;2022-08-19T11:28:52;14.90;;;10.73;;
7845;SDS011;3968;51.424;6.788;2022-08-19T11:31:22;11.25;;;10.05;;
7845;SDS011;3968;51.424;6.788;2022-08-19T11:33:50;13.73;;;10.60;;
7845;SDS011;3968;51.424;6.788;2022-08-19T11:36:17;14.38;;;10.27;;
7845;SDS011;3968;51.424;6.788;2022-08-19T11:38:45;9.50;;;7.40;;
7845;SDS011;3968;51.424;6.788;2022-08-19T11:41:12;8.90;;;7.55;;
7845;SDS011;3968;51.424;6.788;2022-08-19T11:43:38;14.63;;;8.95;;
7845;SDS011;3968;51.424;6.788;2022-08-19T11:46:08;8.90;;;8.05;;
7845;SDS011;3968;51.424;6.788;2022-08-19T11:48:39;10.10;;;9.10;;
7845;SDS011;3968;51.424;6.788;2022-08-19T11:51:07;11.00;;;8.77;;
7845;SDS011;3968;51.424;6.788;2022-08-19T11:53:35;12.77;;;10.02;;
7845;SDS011;3968;51.424;6.788;2022-08-19T11:56:02;15.25;;;10.07;;
7845;SDS011;3968;51.424;6.788;2022-08-19T11:58:29;15.48;;;8.80;;
7845;SDS011;3968;51.424;6.788;2022-08-19T12:00:55;9.00;;;7.28;;
7845;SDS011;3968;51.424;6.788;2022-08-19T12:03:21;10.68;;;8.70;;
7845;SDS011;3968;51.424;6.788;2022-08-19T12:05:46;8.88;;;8.02;;
7845;SDS011;3968;51.424;6.788;2022-08-19T12:08:13;7.18;;;6.45;;
7845;SDS011;3968;51.424;6.788;2022-08-19T12:10:39;8.65;;;6.30;;
7845;SDS011;3968;51.424;6.788;2022-08-19T12:13:07;7.28;;;5.95;;
7845;SDS011;3968;51.424;6.788;2022-08-19T12:15:37;8.70;;;6.10;;
7845;SDS011;3968;51.424;6.788;2022-08-19T12:18:05;7.88;;;4.95;;
7845;SDS011;3968;51.424;6.788;2022-08-19T12:20:33;7.05;;;6.07;;
7845;SDS011;3968;51.424;6.788;2022-08-19T12:23:00;13.77;;;7.20;;
7845;SDS011;3968;51.424;6.788;2022-08-19T12:25:26;9.20;;;6.90;;
7845;SDS011;3968;51.424;6.788;2022-08-19T12:27:52;8.70;;;5.93;;
7845;SDS011;3968;51.424;6.788;2022-08-19T12:30:18;8.05;;;6.53;;
7845;SDS011;3968;51.424;6.788;2022-08-19T12:32:43;8.90;;;5.95;;
7845;SDS011;3968;51.424;6.788;2022-08-19T12:35:09;6.30;;;5.28;;
7845;SDS011;3968;51.424;6.788;2022-08-19T12:37:35;7.68;;;6.15;;
7845;SDS011;3968;51.424;6.788;2022-08-19T12:40:01;7.53;;;5.63;;
7845;SDS011;3968;51.424;6.788;2022-08-19T12:42:28;6.82;;;5.50;;
7845;SDS011;3968;51.424;6.788;2022-08-19T12:44:55;7.38;;;6.13;;
7845;SDS011;3968;51.424;6.788;2022-08-19T12:47:21;8.98;;;5.75;;
7845;SDS011;3968;51.424;6.788;2022-08-19T12:49:47;10.23;;;6.10;;
7845;SDS011;3968;51.424;6.788;2022-08-19T12:52:14;9.27;;;5.68;;
7845;SDS011;3968;51.424;6.788;2022-08-19T12:54:41;6.47;;;5.55;;
7845;SDS011;3968;51.424;6.788;2022-08-19T12:57:08;8.98;;;5.55;;
7845;SDS011;3968;51.424;6.788;2022-08-19T12:59:35;8.77;;;5.90;;
7845;SDS011;3968;51.424;6.788;2022-08-19T13:02:05;7.43;;;5.50;;
7845;SDS011;3968;51.424;6.788;2022-08-19T13:04:32;5.43;;;4.65;;
7845;SDS011;3968;51.424;6.788;2022-08-19T13:07:05;5.13;;;3.70;;
7845;SDS011;3968;51.424;6.788;2022-08-19T13:09:33;5.38;;;3.83;;
7845;SDS011;3968;51.424;6.788;2022-08-19T13:11:59;7.55;;;4.25;;
7845;SDS011;3968;51.424;6.788;2022-08-19T13:14:28;8.13;;;4.35;;
7845;SDS011;3968;51.424;6.788;2022-08-19T13:16:56;5.40;;;4.10;;
7845;SDS011;3968;51.424;6.788;2022-08-19T13:19:22;8.85;;;4.68;;
7845;SDS011;3968;51.424;6.788;2022-08-19T13:21:50;7.60;;;4.53;;
7845;SDS011;3968;51.424;6.788;2022-08-19T13:24:16;8.68;;;4.13;;
7845;SDS011;3968;51.424;6.788;2022-08-19T13:26:42;6.35;;;4.10;;
7845;SDS011;3968;51.424;6.788;2022-08-19T13:29:08;29.67;;;5.38;;
7845;SDS011;3968;51.424;6.788;2022-08-19T13:31:52;10.85;;;5.00;;
7845;SDS011;3968;51.424;6.788;2022-08-19T13:34:36;8.20;;;4.20;;
7845;SDS011;3968;51.424;6.788;2022-08-19T13:37:03;7.95;;;4.68;;
7845;SDS011;3968;51.424;6.788;2022-08-19T13:39:29;7.57;;;5.22;;
7845;SDS011;3968;51.424;6.788;2022-08-19T13:41:59;6.32;;;4.70;;
7845;SDS011;3968;51.424;6.788;2022-08-19T13:44:26;12.90;;;4.30;;
7845;SDS011;3968;51.424;6.788;2022-08-19T13:46:54;7.57;;;4.80;;
7845;SDS011;3968;51.424;6.788;2022-08-19T13:49:27;6.25;;;4.72;;
7845;SDS011;3968;51.424;6.788;2022-08-19T13:51:54;6.57;;;4.55;;
7845;SDS011;3968;51.424;6.788;2022-08-19T13:54:19;11.35;;;4.50;;
7845;SDS011;3968;51.424;6.788;2022-08-19T13:56:45;7.22;;;4.60;;
7845;SDS011;3968;51.424;6.788;2022-08-19T13:59:11;9.30;;;5.65;;
7845;SDS011;3968;51.424;6.788;2022-08-19T14:01:37;8.48;;;5.55;;
7845;SDS011;3968;51.424;6.788;2022-08-19T14:04:03;9.10;;;6.22;;
7845;SDS011;3968;51.424;6.788;2022-08-19T14:06:32;13.05;;;6.25;;
7845;SDS011;3968;51.424;6.788;2022-08-19T14:08:58;7.72;;;5.78;;
7845;SDS011;3968;51.424;6.788;2022-08-19T14:11:23;6.95;;;5.20;;
7845;SDS011;3968;51.424;6.788;2022-08-19T14:13:49;9.38;;;6.07;;
7845;SDS011;3968;51.424;6.788;2022-08-19T14:16:15;12.35;;;6.00;;
7845;SDS011;3968;51.424;6.788;2022-08-19T14:18:41;9.15;;;5.63;;
7845;SDS011;3968;51.424;6.788;2022-08-19T14:21:08;9.18;;;5.88;;
7845;SDS011;3968;51.424;6.788;2022-08-19T14:23:45;7.75;;;5.68;;
7845;SDS011;3968;51.424;6.788;2022-08-19T14:26:13;11.73;;;6.20;;
7845;SDS011;3968;51.424;6.788;2022-08-19T14:28:41;11.23;;;7.30;;
7845;SDS011;3968;51.424;6.788;2022-08-19T14:31:08;11.82;;;6.47;;
7845;SDS011;3968;51.424;6.788;2022-08-19T14:33:35;8.55;;;6.70;;
7845;SDS011;3968;51.424;6.788;2022-08-19T14:36:01;7.78;;;5.03;;
7845;SDS011;3968;51.424;6.788;2022-08-19T14:38:27;6.15;;;4.85;;
7845;SDS011;3968;51.424;6.788;2022-08-19T14:40:56;10.23;;;5.00;;
7845;SDS011;3968;51.424;6.788;2022-08-19T14:43:32;8.75;;;5.38;;
7845;SDS011;3968;51.424;6.788;2022-08-19T14:45:58;8.18;;;4.07;;
7845;SDS011;3968;51.424;6.788;2022-08-19T14:48:24;8.15;;;4.82;;
7845;SDS011;3968;51.424;6.788;2022-08-19T14:50:51;5.38;;;4.22;;
7845;SDS011;3968;51.424;6.788;2022-08-19T14:53:17;9.70;;;5.68;;
7845;SDS011;3968;51.424;6.788;2022-08-19T14:55:43;7.30;;;5.80;;
7845;SDS011;3968;51.424;6.788;2022-08-19T14:58:11;7.32;;;4.57;;
7845;SDS011;3968;51.424;6.788;2022-08-19T15:00:37;5.03;;;4.25;;
7845;SDS011;3968;51.424;6.788;2022-08-19T15:03:03;7.95;;;4.53;;
7845;SDS011;3968;51.424;6.788;2022-08-19T15:05:31;7.85;;;4.25;;
7845;SDS011;3968;51.424;6.788;2022-08-19T15:07:58;8.90;;;4.60;;
7845;SDS011;3968;51.424;6.788;2022-08-19T15:10:28;6.38;;;4.60;;
7845;SDS011;3968;51.424;6.788;2022-08-19T15:12:54;10.55;;;6.55;;
7845;SDS011;3968;51.424;6.788;2022-08-19T15:15:19;6.50;;;4.95;;
7845;SDS011;3968;51.424;6.788;2022-08-19T15:17:46;6.53;;;4.85;;
7845;SDS011;3968;51.424;6.788;2022-08-19T15:20:14;8.00;;;4.78;;